Time;durP1;ratioP1;P1;durP2;ratioP2;P2;SDS_P1;SDS_P2;PMS_P1;PMS_P2;Temp;Humidity;BMP_temperature;BMP_pressure;BME280_temperature;BME280_humidity;BME280_pressure;Samples;Min_cycle;Max_cycle;Signal;HPM_P1;HPM_P2
2021/09/07 00:01:17;;;;;;;17.60;14.67;;;18.50;1.00;;;;;;5066576;28;21141;-81
2021/09/07 00:03:43;;;;;;;15.53;13.97;;;18.50;1.00;;;;;;5062994;28;20462;-79
2021/09/07 00:06:14;;;;;;;15.67;13.90;;;18.60;1.00;;;;;;5045790;28;20479;-79
2021/09/07 00:08:41;;;;;;;19.03;14.17;;;18.60;1.00;;;;;;5051755;28;20867;-79
2021/09/07 00:11:08;;;;;;;15.07;13.53;;;18.60;1.00;;;;;;5040061;28;20455;-80
2021/09/07 00:13:36;;;;;;;18.93;14.30;;;18.50;1.00;;;;;;5043037;28;20413;-79
2021/09/07 00:16:05;;;;;;;19.20;17.20;;;18.50;1.00;;;;;;5030593;28;20488;-80
2021/09/07 00:18:31;;;;;;;21.50;19.30;;;18.50;1.00;;;;;;5030939;28;20460;-80
2021/09/07 00:20:58;;;;;;;17.00;15.23;;;18.50;1.00;;;;;;5028311;28;23923;-80
2021/09/07 00:23:25;;;;;;;22.20;15.30;;;18.50;1.00;;;;;;5022698;28;20452;-81
2021/09/07 00:25:54;;;;;;;15.80;14.20;;;18.50;1.00;;;;;;5025308;28;20417;-81
2021/09/07 00:28:20;;;;;;;17.13;15.43;;;18.50;1.00;;;;;;5028091;28;21105;-82
2021/09/07 00:30:51;;;;;;;17.30;14.23;;;18.40;1.00;;;;;;5019181;28;20457;-81
2021/09/07 00:33:18;;;;;;;17.80;14.53;;;18.40;1.00;;;;;;5021120;28;21248;-80
2021/09/07 00:35:44;;;;;;;17.10;15.00;;;18.50;1.00;;;;;;5022033;28;20475;-80
2021/09/07 00:38:12;;;;;;;20.73;15.63;;;18.40;1.00;;;;;;5019422;28;20529;-80
2021/09/07 00:40:38;;;;;;;15.43;14.00;;;18.40;1.00;;;;;;5020717;28;20496;-80
2021/09/07 00:43:05;;;;;;;17.53;15.33;;;18.50;1.00;;;;;;5021049;28;20405;-81
2021/09/07 00:45:32;;;;;;;16.33;14.63;;;18.40;1.00;;;;;;5026869;28;20429;-80
2021/09/07 00:48:03;;;;;;;14.97;13.50;;;18.40;1.00;;;;;;5025202;28;20523;-81
2021/09/07 00:50:30;;;;;;;15.43;13.80;;;18.40;1.00;;;;;;5006087;28;20568;-80
2021/09/07 00:52:57;;;;;;;16.57;14.87;;;18.40;1.00;;;;;;5024430;28;20567;-80
2021/09/07 00:55:26;;;;;;;17.50;14.77;;;18.40;1.00;;;;;;5024240;28;21068;-81
2021/09/07 00:57:54;;;;;;;18.83;16.83;;;18.30;1.00;;;;;;5020473;28;20531;-80
2021/09/07 01:00:21;;;;;;;16.73;14.10;;;18.30;1.00;;;;;;5022024;28;20462;-80
2021/09/07 01:02:48;;;;;;;15.60;14.00;;;18.30;1.00;;;;;;5024686;28;20519;-79
2021/09/07 01:05:16;;;;;;;18.47;14.30;;;18.30;1.00;;;;;;5020784;28;21256;-81
2021/09/07 01:07:43;;;;;;;16.73;14.90;;;18.30;1.00;;;;;;5003060;28;20543;-81
2021/09/07 01:10:12;;;;;;;16.47;14.87;;;18.30;1.00;;;;;;5014896;28;20450;-81
2021/09/07 01:12:40;;;;;;;16.10;14.27;;;18.30;1.00;;;;;;5019559;28;21267;-80
2021/09/07 01:15:09;;;;;;;16.53;14.70;;;18.30;1.00;;;;;;5019921;28;20516;-81
2021/09/07 01:17:36;;;;;;;17.50;13.80;;;18.30;1.00;;;;;;5024140;28;21398;-80
2021/09/07 01:20:03;;;;;;;16.60;14.90;;;18.30;1.00;;;;;;5026699;28;20467;-81
2021/09/07 01:22:31;;;;;;;17.47;15.60;;;18.30;1.00;;;;;;5027353;28;20440;-80
2021/09/07 01:24:59;;;;;;;15.93;14.33;;;18.20;1.00;;;;;;5023640;28;20687;-80
2021/09/07 01:27:26;;;;;;;16.57;14.47;;;18.20;1.00;;;;;;5020268;28;20832;-81
2021/09/07 01:29:55;;;;;;;17.03;13.70;;;18.10;1.00;;;;;;5027838;28;20476;-81
2021/09/07 01:32:22;;;;;;;15.33;13.27;;;18.10;1.00;;;;;;5021050;28;20555;-79
2021/09/07 01:34:49;;;;;;;15.93;14.10;;;18.10;1.00;;;;;;5022556;28;21022;-80
2021/09/07 01:37:16;;;;;;;18.40;16.00;;;18.00;1.00;;;;;;4998752;28;20455;-80
2021/09/07 01:39:44;;;;;;;17.80;14.20;;;17.90;1.00;;;;;;5018783;28;21403;-80
2021/09/07 01:42:12;;;;;;;17.87;15.60;;;17.90;1.00;;;;;;5020092;28;20549;-80
2021/09/07 01:44:44;;;;;;;15.97;14.33;;;17.80;1.00;;;;;;5022981;28;20570;-81
2021/09/07 01:47:13;;;;;;;16.07;14.40;;;17.70;1.00;;;;;;5022629;28;20910;-81
2021/09/07 01:49:40;;;;;;;16.20;14.40;;;17.70;1.00;;;;;;5027729;28;20462;-81
2021/09/07 01:52:13;;;;;;;16.03;14.50;;;17.60;1.00;;;;;;5023882;28;20459;-81
2021/09/07 01:54:41;;;;;;;21.30;15.53;;;17.50;1.00;;;;;;5026978;28;20438;-81
2021/09/07 01:57:08;;;;;;;16.83;15.07;;;17.40;1.00;;;;;;5030143;28;20454;-81
2021/09/07 01:59:36;;;;;;;16.57;14.73;;;17.40;1.00;;;;;;5027168;28;21046;-81
2021/09/07 02:02:03;;;;;;;15.70;14.10;;;17.30;1.00;;;;;;5026865;28;20436;-81
2021/09/07 02:04:30;;;;;;;19.17;15.10;;;17.40;1.00;;;;;;5029261;28;20528;-81
2021/09/07 02:06:56;;;;;;;17.70;15.80;;;17.30;1.00;;;;;;5028168;28;20463;-81
2021/09/07 02:09:23;;;;;;;16.30;14.70;;;17.30;1.00;;;;;;5008359;28;20457;-81
2021/09/07 02:11:50;;;;;;;15.30;13.70;;;17.30;1.00;;;;;;5027854;28;21862;-80
2021/09/07 02:14:18;;;;;;;17.60;15.70;;;17.30;1.00;;;;;;5030201;28;20466;-79
2021/09/07 02:16:46;;;;;;;19.43;15.40;;;17.30;1.00;;;;;;5028502;28;20473;-81
2021/09/07 02:19:14;;;;;;;17.43;15.07;;;17.20;1.00;;;;;;5025460;28;20480;-79
2021/09/07 02:21:40;;;;;;;16.50;14.80;;;17.20;1.00;;;;;;5028258;28;20481;-80
2021/09/07 02:24:07;;;;;;;18.20;16.17;;;17.10;1.00;;;;;;5031074;28;21360;-81
2021/09/07 02:26:34;;;;;;;17.07;15.00;;;17.10;1.00;;;;;;5033856;28;20547;-80
2021/09/07 02:29:00;;;;;;;17.73;15.97;;;17.10;1.00;;;;;;5012114;28;20468;-80
2021/09/07 02:31:27;;;;;;;17.70;15.47;;;17.00;1.00;;;;;;5029798;28;20440;-80
2021/09/07 02:33:55;;;;;;;18.10;16.00;;;17.00;1.00;;;;;;5036328;28;20452;-79
2021/09/07 02:36:23;;;;;;;21.07;16.47;;;16.90;1.00;;;;;;5029452;28;20816;-81
2021/09/07 02:38:50;;;;;;;19.30;16.83;;;16.90;1.00;;;;;;5024140;28;20462;-79
2021/09/07 02:41:18;;;;;;;21.80;16.30;;;16.80;1.00;;;;;;5027240;28;20475;-79
2021/09/07 02:43:45;;;;;;;19.37;16.50;;;16.80;1.00;;;;;;5028155;28;20735;-81
2021/09/07 02:46:14;;;;;;;19.57;16.47;;;16.80;1.00;;;;;;5024979;28;20595;-81
2021/09/07 02:48:42;;;;;;;18.93;16.93;;;16.80;1.00;;;;;;5027824;28;20477;-81
2021/09/07 02:51:13;;;;;;;19.87;17.70;;;16.70;1.00;;;;;;5029941;28;20424;-80
2021/09/07 02:53:42;;;;;;;19.33;16.20;;;16.70;1.00;;;;;;5024288;28;20466;-80
2021/09/07 02:56:09;;;;;;;19.43;15.97;;;16.70;1.00;;;;;;5029674;28;20459;-82
2021/09/07 02:58:35;;;;;;;19.67;17.67;;;16.60;1.00;;;;;;5027085;28;21013;-81
2021/09/07 03:01:02;;;;;;;19.93;17.87;;;16.60;1.00;;;;;;5026250;28;20437;-81
2021/09/07 03:03:29;;;;;;;20.90;17.00;;;16.60;1.00;;;;;;5024489;28;20460;-82
2021/09/07 03:05:58;;;;;;;19.70;16.47;;;16.60;1.00;;;;;;5033261;28;21184;-82
2021/09/07 03:08:26;;;;;;;19.70;17.60;;;16.60;1.00;;;;;;5027998;28;20974;-82
2021/09/07 03:10:52;;;;;;;25.40;19.20;;;16.60;1.00;;;;;;5029794;28;20463;-82
2021/09/07 03:13:19;;;;;;;21.40;17.23;;;16.50;1.00;;;;;;5026020;28;21535;-82
2021/09/07 03:15:46;;;;;;;20.27;18.10;;;16.50;1.00;;;;;;5027633;28;20417;-81
2021/09/07 03:18:15;;;;;;;20.90;18.30;;;16.50;1.00;;;;;;5025363;28;20960;-81
2021/09/07 03:20:42;;;;;;;21.40;17.63;;;16.40;1.00;;;;;;5025760;28;20601;-82
2021/09/07 03:23:12;;;;;;;18.73;16.83;;;16.30;1.00;;;;;;5029347;28;20443;-82
2021/09/07 03:25:40;;;;;;;24.27;18.07;;;16.30;1.00;;;;;;5033001;28;20459;-81
2021/09/07 03:28:10;;;;;;;20.17;17.83;;;16.20;1.00;;;;;;5026028;28;20452;-82
2021/09/07 03:30:37;;;;;;;28.97;22.30;;;16.20;1.00;;;;;;5020157;28;21354;-82
2021/09/07 03:33:04;;;;;;;22.53;20.07;;;16.10;1.00;;;;;;5010152;28;20467;-80
2021/09/07 03:35:30;;;;;;;20.33;18.23;;;16.10;1.00;;;;;;5025288;28;20472;-81
2021/09/07 03:37:59;;;;;;;21.13;17.60;;;16.10;1.00;;;;;;5010770;28;20461;-84
2021/09/07 03:40:26;;;;;;;25.70;19.70;;;16.00;1.00;;;;;;5031068;28;20466;-82
2021/09/07 03:42:54;;;;;;;24.07;19.10;;;15.90;1.00;;;;;;5028159;28;20500;-82
2021/09/07 03:45:21;;;;;;;29.40;22.77;;;15.90;1.00;;;;;;5042267;28;20942;-81
2021/09/07 03:47:49;;;;;;;23.57;19.90;;;15.90;1.00;;;;;;5047093;28;20474;-81
2021/09/07 03:50:16;;;;;;;21.87;19.50;;;15.80;1.00;;;;;;5050952;28;20583;-82
2021/09/07 03:52:43;;;;;;;28.70;20.70;;;15.80;1.00;;;;;;5050132;28;20434;-81
2021/09/07 03:55:13;;;;;;;27.43;19.53;;;15.80;1.00;;;;;;5049696;27;20660;-82
2021/09/07 03:57:40;;;;;;;24.00;19.50;;;15.70;1.00;;;;;;5049430;28;20692;-82
2021/09/07 04:00:10;;;;;;;23.33;19.67;;;15.70;1.00;;;;;;5045188;28;20446;-83
2021/09/07 04:02:38;;;;;;;22.13;19.73;;;15.60;1.00;;;;;;5024435;28;21497;-82
2021/09/07 04:05:06;;;;;;;26.20;19.87;;;15.50;1.00;;;;;;5023890;28;20538;-83
2021/09/07 04:07:32;;;;;;;25.27;20.07;;;15.50;1.00;;;;;;5010518;28;20880;-83
2021/09/07 04:09:59;;;;;;;29.70;22.00;;;15.50;1.00;;;;;;5029090;28;20418;-82
2021/09/07 04:12:26;;;;;;;23.17;20.77;;;15.50;1.00;;;;;;5025920;28;20554;-81
2021/09/07 04:14:53;;;;;;;24.00;19.90;;;15.50;1.00;;;;;;5026362;28;21213;-82
2021/09/07 04:17:21;;;;;;;25.10;22.33;;;15.60;1.00;;;;;;5027207;28;20491;-82
2021/09/07 04:19:48;;;;;;;26.07;21.30;;;15.60;1.00;;;;;;5028844;28;20581;-79
2021/09/07 04:22:15;;;;;;;25.13;20.40;;;15.60;1.00;;;;;;5029404;28;20469;-79
2021/09/07 04:24:42;;;;;;;29.90;21.00;;;15.60;1.00;;;;;;5033715;28;20450;-80
2021/09/07 04:27:10;;;;;;;23.37;20.70;;;15.70;1.00;;;;;;5027574;28;20471;-80
2021/09/07 04:29:37;;;;;;;25.10;20.03;;;15.70;1.00;;;;;;5030502;28;20415;-81
2021/09/07 04:32:04;;;;;;;23.23;19.17;;;15.70;1.00;;;;;;5023837;28;20458;-79
2021/09/07 04:34:32;;;;;;;23.57;20.53;;;15.70;1.00;;;;;;5024922;28;21000;-78
2021/09/07 04:36:59;;;;;;;28.83;22.77;;;15.80;1.00;;;;;;5022716;28;20901;-78
2021/09/07 04:39:28;;;;;;;23.43;20.23;;;15.70;1.00;;;;;;5024143;28;20571;-78
2021/09/07 04:41:55;;;;;;;22.33;19.23;;;15.80;1.00;;;;;;5019943;28;20527;-78
2021/09/07 04:44:23;;;;;;;22.10;18.63;;;15.70;1.00;;;;;;5022625;28;20422;-79
2021/09/07 04:46:51;;;;;;;24.83;20.50;;;15.70;1.00;;;;;;5021456;28;20481;-78
2021/09/07 04:49:19;;;;;;;27.93;20.90;;;15.70;1.00;;;;;;5020635;28;20462;-78
2021/09/07 04:51:47;;;;;;;23.67;20.00;;;15.70;1.00;;;;;;5018359;28;20445;-79
2021/09/07 04:54:14;;;;;;;22.20;19.90;;;15.70;1.00;;;;;;5019246;28;20463;-78
2021/09/07 04:56:40;;;;;;;25.37;21.30;;;15.70;1.00;;;;;;5019346;28;20490;-79
2021/09/07 04:59:07;;;;;;;25.77;21.93;;;15.70;1.00;;;;;;5024437;28;20501;-81
2021/09/07 05:01:34;;;;;;;23.50;21.00;;;15.70;1.00;;;;;;5025857;28;20475;-79
2021/09/07 05:04:00;;;;;;;28.90;20.90;;;15.70;1.00;;;;;;5024218;28;20474;-79
2021/09/07 05:06:28;;;;;;;27.63;21.60;;;15.70;1.00;;;;;;5006793;28;20483;-79
2021/09/07 05:08:56;;;;;;;26.90;23.97;;;15.80;1.00;;;;;;5025733;28;20461;-79
2021/09/07 05:11:23;;;;;;;27.60;21.83;;;15.80;1.00;;;;;;5022893;28;20590;-77
2021/09/07 05:13:50;;;;;;;22.93;20.43;;;15.90;1.00;;;;;;5019634;28;20462;-79
2021/09/07 05:16:16;;;;;;;24.13;20.20;;;16.00;1.00;;;;;;5036852;28;20513;-78
2021/09/07 05:18:43;;;;;;;25.03;21.00;;;16.10;1.00;;;;;;5029307;28;21269;-79
2021/09/07 05:21:10;;;;;;;22.13;19.83;;;16.30;1.00;;;;;;5028049;28;20549;-78
2021/09/07 05:23:37;;;;;;;23.87;21.30;;;16.40;1.00;;;;;;5026676;28;20453;-79
2021/09/07 05:26:05;;;;;;;23.13;20.63;;;16.50;1.00;;;;;;5023686;28;20474;-77
2021/09/07 05:28:32;;;;;;;21.77;18.00;;;16.60;1.00;;;;;;5031557;28;20541;-76
2021/09/07 05:30:59;;;;;;;22.17;19.57;;;16.70;1.00;;;;;;5029963;28;20548;-76
2021/09/07 05:33:26;;;;;;;24.67;19.70;;;16.80;1.00;;;;;;5029663;28;20579;-77
2021/09/07 05:35:53;;;;;;;22.07;19.70;;;16.80;1.00;;;;;;5026565;28;21321;-78
2021/09/07 05:38:20;;;;;;;26.87;23.43;;;16.90;1.00;;;;;;5032936;28;21301;-78
2021/09/07 05:40:47;;;;;;;22.13;19.83;;;17.00;1.00;;;;;;5027361;28;20563;-80
2021/09/07 05:43:15;;;;;;;25.83;22.97;;;17.10;1.00;;;;;;5029346;28;20538;-79
2021/09/07 05:45:42;;;;;;;22.07;19.67;;;17.20;1.00;;;;;;5026696;28;20467;-77
2021/09/07 05:48:08;;;;;;;25.83;23.20;;;17.30;1.00;;;;;;5027103;28;20444;-77
2021/09/07 05:50:35;;;;;;;22.17;19.77;;;17.50;1.00;;;;;;5025565;28;20547;-78
2021/09/07 05:53:02;;;;;;;21.80;19.50;;;17.60;1.00;;;;;;5028569;28;20500;-78
2021/09/07 05:55:29;;;;;;;21.50;18.63;;;17.80;1.00;;;;;;5028479;28;20460;-76
2021/09/07 05:57:57;;;;;;;27.73;24.73;;;17.90;1.00;;;;;;5027455;28;20500;-78
2021/09/07 06:00:25;;;;;;;23.30;20.80;;;17.90;1.00;;;;;;5030943;28;20528;-78
2021/09/07 06:02:54;;;;;;;22.33;18.97;;;18.00;1.00;;;;;;5025658;28;20444;-78
2021/09/07 06:05:21;;;;;;;22.80;20.30;;;18.00;1.00;;;;;;5027134;28;20449;-77
2021/09/07 06:07:48;;;;;;;23.77;18.90;;;17.90;1.00;;;;;;5026830;28;20538;-77
2021/09/07 06:10:15;;;;;;;21.37;17.90;;;17.90;1.00;;;;;;5016401;28;20607;-78
2021/09/07 06:12:41;;;;;;;19.97;17.80;;;17.90;1.00;;;;;;5027210;28;20464;-77
2021/09/07 06:15:11;;;;;;;24.40;19.67;;;17.90;1.00;;;;;;5023757;28;20509;-78
2021/09/07 06:17:42;;;;;;;23.10;18.03;;;17.80;1.00;;;;;;5026178;28;20436;-78
2021/09/07 06:20:10;;;;;;;19.40;17.40;;;17.80;1.00;;;;;;5029203;28;20538;-79
2021/09/07 06:22:37;;;;;;;18.40;16.50;;;17.80;1.00;;;;;;5030290;28;21264;-78
2021/09/07 06:25:04;;;;;;;23.27;17.93;;;17.80;1.00;;;;;;5029415;28;20455;-78
2021/09/07 06:27:31;;;;;;;18.83;15.97;;;17.90;1.00;;;;;;5028288;28;21430;-79
2021/09/07 06:29:57;;;;;;;21.70;17.67;;;17.90;1.00;;;;;;5025971;28;20471;-78
2021/09/07 06:32:24;;;;;;;22.47;17.13;;;18.00;1.00;;;;;;5008771;28;20452;-78
2021/09/07 06:34:52;;;;;;;20.17;15.70;;;18.10;1.00;;;;;;5033449;28;20452;-78
2021/09/07 06:37:19;;;;;;;23.20;17.67;;;18.20;1.00;;;;;;5033256;28;21275;-77
2021/09/07 06:39:47;;;;;;;20.30;16.87;;;18.40;1.00;;;;;;5042826;28;20469;-77
2021/09/07 06:42:13;;;;;;;17.97;16.07;;;18.50;1.00;;;;;;5038654;28;20465;-77
2021/09/07 06:44:40;;;;;;;19.43;16.37;;;18.60;1.00;;;;;;5032975;28;21098;-79
2021/09/07 06:47:07;;;;;;;18.03;16.10;;;18.70;1.00;;;;;;5029675;28;20451;-78
2021/09/07 06:49:33;;;;;;;18.93;14.27;;;18.70;1.00;;;;;;5043139;28;21456;-80
2021/09/07 06:52:02;;;;;;;19.70;15.00;;;18.70;1.00;;;;;;5032437;28;20952;-80
2021/09/07 06:54:28;;;;;;;17.80;15.60;;;18.60;1.00;;;;;;5031292;28;20460;-79
2021/09/07 06:56:55;;;;;;;18.20;16.10;;;18.60;1.00;;;;;;5031541;28;20464;-80
2021/09/07 06:59:24;;;;;;;17.33;12.93;;;18.60;1.00;;;;;;5029486;28;20456;-80
2021/09/07 07:01:51;;;;;;;18.17;15.73;;;18.50;1.00;;;;;;5036248;28;20453;-78
2021/09/07 07:04:17;;;;;;;19.20;13.67;;;18.40;1.00;;;;;;5035531;28;20448;-80
2021/09/07 07:06:44;;;;;;;19.80;15.40;;;18.40;1.00;;;;;;5046958;28;20572;-78
2021/09/07 07:09:12;;;;;;;17.37;15.13;;;18.40;1.00;;;;;;5036707;28;21441;-80
2021/09/07 07:11:39;;;;;;;15.80;13.10;;;18.50;1.00;;;;;;5042464;28;20432;-81
2021/09/07 07:14:07;;;;;;;23.17;15.67;;;18.50;1.00;;;;;;5045337;28;20449;-79
2021/09/07 07:16:36;;;;;;;18.07;16.27;;;18.70;1.00;;;;;;5011699;28;20555;-79
2021/09/07 07:19:03;;;;;;;17.17;14.63;;;18.80;1.00;;;;;;5028408;28;20951;-80
2021/09/07 07:21:30;;;;;;;15.40;12.80;;;18.90;1.00;;;;;;5033313;28;20465;-80
2021/09/07 07:23:57;;;;;;;14.77;12.97;;;19.10;1.00;;;;;;5027846;28;20492;-78
2021/09/07 07:26:25;;;;;;;17.13;13.10;;;19.10;1.00;;;;;;5040288;28;20465;-80
2021/09/07 07:28:52;;;;;;;15.23;13.73;;;19.10;1.00;;;;;;5032262;28;20488;-80
2021/09/07 07:31:18;;;;;;;16.90;14.27;;;19.20;1.00;;;;;;5035496;28;20449;-80
2021/09/07 07:33:45;;;;;;;15.33;13.77;;;19.30;1.00;;;;;;5036320;28;21236;-80
2021/09/07 07:36:14;;;;;;;15.60;13.07;;;19.40;1.00;;;;;;5014969;28;23736;-80
2021/09/07 07:38:41;;;;;;;13.10;11.80;;;19.60;1.00;;;;;;5038232;28;20464;-80
2021/09/07 07:41:09;;;;;;;14.17;11.30;;;19.70;1.00;;;;;;5030424;28;20424;-79
2021/09/07 07:43:44;;;;;;;16.40;12.10;;;19.80;1.00;;;;;;5028516;28;21355;-79
2021/09/07 07:46:10;;;;;;;11.27;10.10;;;19.80;1.00;;;;;;5026637;28;20532;-79
2021/09/07 07:48:40;;;;;;;13.53;11.40;;;19.90;1.00;;;;;;5029769;28;20475;-78
2021/09/07 07:51:06;;;;;;;12.73;10.57;;;20.00;1.00;;;;;;5026672;28;20464;-78
2021/09/07 07:53:33;;;;;;;11.90;10.70;;;20.10;1.00;;;;;;5022968;28;20454;-77
2021/09/07 07:56:04;;;;;;;11.93;10.50;;;20.20;1.00;;;;;;5029233;28;20446;-79
2021/09/07 07:58:31;;;;;;;14.30;11.20;;;20.20;1.00;;;;;;5027878;28;20457;-78
2021/09/07 08:00:59;;;;;;;13.30;12.00;;;20.20;1.00;;;;;;5033678;28;20441;-78
2021/09/07 08:03:29;;;;;;;13.93;12.20;;;20.30;1.00;;;;;;5027292;28;20804;-78
2021/09/07 08:05:56;;;;;;;12.30;11.00;;;20.50;1.00;;;;;;5024176;28;20537;-78
2021/09/07 08:08:28;;;;;;;16.23;13.40;;;20.50;1.00;;;;;;5028603;28;20493;-79
2021/09/07 08:10:56;;;;;;;14.27;12.77;;;20.60;1.00;;;;;;5026085;28;20550;-78
2021/09/07 08:13:22;;;;;;;15.00;12.47;;;20.70;1.00;;;;;;5027050;28;20425;-78
2021/09/07 08:15:49;;;;;;;17.40;13.20;;;20.80;1.00;;;;;;5023112;28;20516;-79
2021/09/07 08:18:17;;;;;;;13.70;11.87;;;20.90;1.00;;;;;;5031240;28;21668;-79
2021/09/07 08:20:44;;;;;;;16.00;12.37;;;21.00;1.00;;;;;;5028251;28;20520;-78
2021/09/07 08:23:11;;;;;;;19.67;14.20;;;21.10;1.00;;;;;;5029458;28;20470;-79
2021/09/07 08:25:38;;;;;;;23.50;17.00;;;21.20;1.00;;;;;;5031147;28;20453;-79
2021/09/07 08:28:08;;;;;;;18.83;14.37;;;21.20;1.00;;;;;;5029101;28;20486;-79
2021/09/07 08:30:35;;;;;;;19.13;14.43;;;21.40;1.00;;;;;;5028009;28;20438;-80
2021/09/07 08:33:02;;;;;;;15.77;14.13;;;21.60;1.00;;;;;;5033634;28;20451;-80
2021/09/07 08:35:30;;;;;;;14.27;12.87;;;21.70;1.00;;;;;;5027531;28;21202;-79
2021/09/07 08:37:56;;;;;;;14.80;13.17;;;21.80;1.00;;;;;;5013794;28;21475;-80
2021/09/07 08:40:25;;;;;;;19.47;14.27;;;21.90;1.00;;;;;;5037023;28;20454;-80
2021/09/07 08:42:52;;;;;;;17.90;14.63;;;22.10;1.00;;;;;;5031560;28;20463;-79
2021/09/07 08:45:19;;;;;;;15.40;13.57;;;22.30;1.00;;;;;;5031101;28;20493;-79
2021/09/07 08:47:46;;;;;;;14.57;13.10;;;22.40;1.00;;;;;;5031366;28;20451;-79
2021/09/07 08:50:15;;;;;;;15.40;13.47;;;22.50;1.00;;;;;;5040754;28;20463;-78
2021/09/07 08:52:43;;;;;;;14.67;13.10;;;22.60;1.00;;;;;;5037340;28;21262;-79
2021/09/07 08:55:15;;;;;;;15.03;13.53;;;22.60;1.00;;;;;;5027007;28;20541;-79
2021/09/07 08:57:42;;;;;;;17.00;12.97;;;22.60;1.00;;;;;;5029589;28;20552;-77
2021/09/07 09:00:10;;;;;;;15.90;13.80;;;22.80;1.00;;;;;;5028525;28;21100;-80
2021/09/07 09:02:41;;;;;;;15.67;12.83;;;23.00;1.00;;;;;;5019150;28;20482;-80
2021/09/07 09:05:09;;;;;;;13.57;12.13;;;23.00;1.00;;;;;;5024328;28;20477;-79
2021/09/07 09:07:36;;;;;;;14.00;12.60;;;23.20;1.00;;;;;;5021548;28;20883;-79
2021/09/07 09:10:06;;;;;;;13.67;12.27;;;23.10;1.00;;;;;;5021178;28;20465;-79
2021/09/07 09:12:35;;;;;;;16.67;14.97;;;23.10;1.00;;;;;;5021688;28;20476;-78
2021/09/07 09:15:10;;;;;;;14.40;12.90;;;23.10;1.00;;;;;;5019903;28;20452;-80
2021/09/07 09:17:40;;;;;;;13.83;12.43;;;23.30;1.00;;;;;;5024299;28;20477;-79
2021/09/07 09:20:14;;;;;;;13.10;11.43;;;23.60;1.00;;;;;;5021800;28;24037;-80
2021/09/07 09:22:44;;;;;;;12.70;11.20;;;24.40;1.00;;;;;;5024909;28;20464;-81
2021/09/07 09:25:26;;;;;;;12.20;11.00;;;25.60;1.00;;;;;;5024433;28;20441;-81
2021/09/07 09:28:11;;;;;;;13.90;12.50;;;26.90;1.00;;;;;;5025940;28;20637;-82
2021/09/07 09:30:40;;;;;;;13.53;12.13;;;27.80;1.00;;;;;;5025231;28;20456;-82
2021/09/07 09:33:08;;;;;;;13.50;12.00;;;27.50;1.00;;;;;;5027775;28;20560;-81
2021/09/07 09:35:44;;;;;;;13.70;11.87;;;28.10;1.00;;;;;;5026907;28;20471;-81
2021/09/07 09:38:11;;;;;;;13.77;12.17;;;28.90;1.00;;;;;;5030897;28;20540;-81
2021/09/07 09:40:40;;;;;;;13.20;11.93;;;29.60;1.00;;;;;;5032183;28;20450;-82
2021/09/07 09:43:24;;;;;;;13.30;11.50;;;30.20;1.00;;;;;;5027629;28;20590;-82
2021/09/07 09:45:52;;;;;;;13.47;12.00;;;31.00;1.00;;;;;;5030789;28;20427;-82
2021/09/07 09:48:23;;;;;;;14.40;11.23;;;31.00;1.00;;;;;;5033584;28;20578;-81
2021/09/07 09:50:55;;;;;;;12.17;10.93;;;31.20;1.00;;;;;;5025537;28;20563;-81
2021/09/07 09:53:22;;;;;;;13.83;12.37;;;31.50;1.00;;;;;;5022856;28;20522;-81
2021/09/07 09:55:53;;;;;;;12.47;11.17;;;32.00;1.00;;;;;;5030564;28;20473;-80
2021/09/07 09:58:22;;;;;;;12.83;11.40;;;32.30;1.00;;;;;;5030329;28;20475;-82
2021/09/07 10:00:50;;;;;;;12.63;11.33;;;32.50;1.00;;;;;;5030925;28;20480;-81
2021/09/07 10:03:18;;;;;;;12.77;11.47;;;32.50;1.00;;;;;;5026385;28;20570;-81
2021/09/07 10:05:46;;;;;;;13.43;11.03;;;32.40;1.00;;;;;;5028130;28;20460;-81
2021/09/07 10:08:18;;;;;;;13.53;11.20;;;32.40;1.00;;;;;;5018138;28;20483;-79
2021/09/07 10:10:54;;;;;;;13.23;10.80;;;32.40;1.00;;;;;;5032917;28;20407;-81
2021/09/07 10:13:25;;;;;;;12.47;11.10;;;32.70;1.00;;;;;;5033378;28;20512;-80
2021/09/07 10:15:56;;;;;;;12.60;11.10;;;32.70;1.00;;;;;;5037143;28;20444;-81
2021/09/07 10:18:34;;;;;;;14.17;12.30;;;33.00;1.00;;;;;;5041826;28;20631;-80
2021/09/07 10:21:10;;;;;;;13.70;11.43;;;32.00;1.00;;;;;;5038366;28;20442;-80
2021/09/07 10:23:55;;;;;;;12.27;11.07;;;30.90;1.00;;;;;;5041678;28;20434;-80
2021/09/07 10:26:56;;;;;;;12.60;11.40;;;30.20;1.00;;;;;;5037292;28;20450;-80
2021/09/07 10:29:44;;;;;;;13.63;12.30;;;30.30;1.00;;;;;;5035456;28;20568;-81
2021/09/07 10:32:25;;;;;;;12.57;11.27;;;31.60;1.00;;;;;;5036531;28;20452;-80
2021/09/07 10:35:13;;;;;;;12.40;11.20;;;32.70;1.00;;;;;;5042360;28;21021;-80
2021/09/07 10:38:13;;;;;;;12.00;10.80;;;32.00;1.00;;;;;;5043021;28;20586;-81
2021/09/07 10:40:45;;;;;;;12.90;10.67;;;30.90;1.00;;;;;;5039469;28;20609;-81
2021/09/07 10:43:39;;;;;;;12.33;10.50;;;29.70;1.00;;;;;;5040960;28;21688;-80
2021/09/07 10:46:07;;;;;;;13.57;11.03;;;29.50;1.00;;;;;;5042292;28;20569;-80
2021/09/07 10:48:35;;;;;;;10.97;9.87;;;29.50;1.00;;;;;;5044382;28;20503;-80
2021/09/07 10:51:04;;;;;;;11.07;10.07;;;30.80;1.00;;;;;;5028948;28;21868;-80
2021/09/07 10:53:33;;;;;;;13.37;10.30;;;31.90;1.00;;;;;;5047471;28;20488;-80
2021/09/07 10:56:26;;;;;;;11.70;10.00;;;32.70;1.00;;;;;;5044284;28;20546;-81
2021/09/07 10:58:54;;;;;;;12.57;11.27;;;33.50;1.00;;;;;;5050897;28;20452;-80
2021/09/07 11:01:29;;;;;;;15.93;10.73;;;33.60;1.00;;;;;;5030140;28;20742;-81
2021/09/07 11:04:31;;;;;;;12.83;9.90;;;32.70;1.00;;;;;;5030551;28;20458;-81
2021/09/07 11:06:58;;;;;;;12.57;11.37;;;31.50;1.00;;;;;;5028830;28;20604;-80
2021/09/07 11:09:50;;;;;;;10.87;9.27;;;31.30;1.00;;;;;;5030476;28;20773;-81
2021/09/07 11:12:28;;;;;;;10.40;9.50;;;32.50;1.00;;;;;;5021511;28;20454;-80
2021/09/07 11:15:04;;;;;;;13.23;9.20;;;33.90;1.00;;;;;;5032506;28;20612;-80
2021/09/07 11:17:31;;;;;;;21.60;19.50;;;34.90;1.00;;;;;;5013892;28;20562;-80
2021/09/07 11:19:59;;;;;;;11.73;10.63;;;35.40;1.00;;;;;;5031287;28;20437;-81
2021/09/07 11:22:27;;;;;;;8.97;8.17;;;35.60;1.00;;;;;;5032770;28;20441;-80
2021/09/07 11:25:05;;;;;;;8.67;7.70;;;35.40;1.00;;;;;;5036122;28;20560;-79
2021/09/07 11:27:51;;;;;;;10.27;8.97;;;35.50;1.00;;;;;;5031292;28;20540;-80
2021/09/07 11:30:29;;;;;;;9.30;8.00;;;35.90;1.00;;;;;;5032756;28;20440;-81
2021/09/07 11:33:00;;;;;;;9.30;8.50;;;36.20;1.00;;;;;;5032399;28;20550;-80
2021/09/07 11:35:27;;;;;;;19.83;9.47;;;36.70;1.00;;;;;;5035756;28;20415;-80
2021/09/07 11:37:59;;;;;;;9.10;8.20;;;37.20;1.00;;;;;;5031966;28;20448;-80
2021/09/07 11:40:25;;;;;;;8.33;7.57;;;37.10;1.00;;;;;;5035077;28;21851;-81
2021/09/07 11:42:52;;;;;;;8.90;7.90;;;36.70;1.00;;;;;;5032490;28;20460;-80
2021/09/07 11:45:26;;;;;;;8.90;8.10;;;35.00;1.00;;;;;;5032643;28;20457;-79
2021/09/07 11:47:53;;;;;;;7.53;6.83;;;33.60;1.00;;;;;;5029815;28;21705;-80
2021/09/07 11:50:21;;;;;;;8.70;7.50;;;32.80;1.00;;;;;;5037985;28;20484;-81
2021/09/07 11:52:50;;;;;;;8.13;7.40;;;32.60;1.00;;;;;;5024839;28;21154;-79
2021/09/07 11:55:57;;;;;;;9.27;7.23;;;33.40;1.00;;;;;;5028732;28;20536;-79
2021/09/07 11:58:47;;;;;;;11.87;10.87;;;34.20;1.00;;;;;;5021720;28;20472;-80
2021/09/07 12:01:17;;;;;;;8.17;7.43;;;35.50;1.00;;;;;;5028475;28;20476;-79
2021/09/07 12:03:52;;;;;;;8.83;7.00;;;35.00;1.00;;;;;;5034718;28;20445;-79
2021/09/07 12:06:30;;;;;;;11.57;9.03;;;33.60;1.00;;;;;;5028172;28;20416;-79
2021/09/07 12:08:57;;;;;;;10.60;8.10;;;32.30;1.00;;;;;;5022405;28;20477;-80
2021/09/07 12:11:29;;;;;;;10.77;9.70;;;30.80;1.00;;;;;;5026637;28;20477;-78
2021/09/07 12:14:07;;;;;;;9.40;8.50;;;29.70;1.00;;;;;;5027621;28;20542;-77
2021/09/07 12:16:49;;;;;;;10.33;8.17;;;28.80;1.00;;;;;;5029890;28;20588;-80
2021/09/07 12:19:35;;;;;;;9.20;8.20;;;28.20;1.00;;;;;;5034785;28;20461;-79
2021/09/07 12:22:36;;;;;;;9.83;8.83;;;27.70;1.00;;;;;;5029416;28;20852;-80
2021/09/07 12:25:55;;;;;;;;;;;;;;;;;;;;;
2021/09/07 12:32:01;;;;;;;9.13;8.23;;;30.20;1.00;;;;;;5062003;28;20409;-80
2021/09/07 12:35:16;;;;;;;;;;;;;;;;;;;;;
2021/09/07 12:38:11;;;;;;;11.80;8.43;;;34.70;1.00;;;;;;5066140;28;20397;-81
2021/09/07 12:41:17;;;;;;;8.30;7.50;;;35.20;1.00;;;;;;5057616;28;21386;-78
2021/09/07 12:44:16;;;;;;;8.33;7.47;;;35.40;1.00;;;;;;5037497;28;21015;-80
2021/09/07 12:47:40;;;;;;;9.63;8.73;;;36.00;1.00;;;;;;5033082;28;20460;-81
2021/09/07 12:50:11;;;;;;;11.73;10.27;;;34.70;1.00;;;;;;5026279;28;20425;-78
2021/09/07 12:52:38;;;;;;;10.07;9.17;;;33.20;1.00;;;;;;5049727;28;20421;-78
2021/09/07 12:55:05;;;;;;;10.40;9.40;;;31.80;1.00;;;;;;5019930;28;20495;-81
2021/09/07 12:57:32;;;;;;;10.93;9.83;;;30.70;1.00;;;;;;5038722;28;20586;-80
2021/09/07 13:00:00;;;;;;;10.90;9.80;;;30.70;1.00;;;;;;5028111;28;20490;-80